sensor_id;sensor_type;location;lat;lon;timestamp;P1;durP1;ratioP1;P2;durP2;ratioP2
34828;SDS011;21042;47.620;12.188;2023-04-24T00:02:19;2.55;;;1.55;;
34828;SDS011;21042;47.620;12.188;2023-04-24T00:04:46;7.45;;;2.45;;
34828;SDS011;21042;47.620;12.188;2023-04-24T00:07:13;4.55;;;2.28;;
34828;SDS011;21042;47.620;12.188;2023-04-24T00:09:40;3.33;;;2.17;;
34828;SDS011;21042;47.620;12.188;2023-04-24T00:12:07;3.10;;;2.03;;
34828;SDS011;21042;47.620;12.188;2023-04-24T00:14:35;4.88;;;2.83;;
34828;SDS011;21042;47.620;12.188;2023-04-24T00:17:01;4.70;;;2.30;;
34828;SDS011;21042;47.620;12.188;2023-04-24T00:19:28;6.18;;;3.10;;
34828;SDS011;21042;47.620;12.188;2023-04-24T00:21:55;3.13;;;2.47;;
34828;SDS011;21042;47.620;12.188;2023-04-24T00:24:22;2.90;;;2.15;;
34828;SDS011;21042;47.620;12.188;2023-04-24T00:26:49;3.05;;;2.05;;
34828;SDS011;21042;47.620;12.188;2023-04-24T00:29:15;3.65;;;2.05;;
34828;SDS011;21042;47.620;12.188;2023-04-24T00:31:42;4.60;;;1.80;;
34828;SDS011;21042;47.620;12.188;2023-04-24T00:34:09;6.13;;;1.50;;
34828;SDS011;21042;47.620;12.188;2023-04-24T00:36:37;2.22;;;1.60;;
34828;SDS011;21042;47.620;12.188;2023-04-24T00:39:04;7.85;;;1.83;;
34828;SDS011;21042;47.620;12.188;2023-04-24T00:41:31;4.32;;;1.40;;
34828;SDS011;21042;47.620;12.188;2023-04-24T00:43:58;1.30;;;1.20;;
34828;SDS011;21042;47.620;12.188;2023-04-24T00:46:25;3.38;;;1.80;;
34828;SDS011;21042;47.620;12.188;2023-04-24T00:48:52;3.20;;;1.52;;
34828;SDS011;21042;47.620;12.188;2023-04-24T00:51:19;4.38;;;1.73;;
34828;SDS011;21042;47.620;12.188;2023-04-24T00:53:46;3.58;;;1.30;;
34828;SDS011;21042;47.620;12.188;2023-04-24T00:56:12;3.13;;;1.58;;
34828;SDS011;21042;47.620;12.188;2023-04-24T00:58:39;3.53;;;1.50;;
34828;SDS011;21042;47.620;12.188;2023-04-24T01:01:08;2.03;;;1.00;;
34828;SDS011;21042;47.620;12.188;2023-04-24T01:03:35;4.45;;;1.70;;
34828;SDS011;21042;47.620;12.188;2023-04-24T01:06:04;8.07;;;2.85;;
34828;SDS011;21042;47.620;12.188;2023-04-24T01:08:31;3.67;;;1.55;;
34828;SDS011;21042;47.620;12.188;2023-04-24T01:11:03;4.50;;;1.73;;
34828;SDS011;21042;47.620;12.188;2023-04-24T01:13:30;4.05;;;1.70;;
34828;SDS011;21042;47.620;12.188;2023-04-24T01:15:58;4.25;;;2.25;;
34828;SDS011;21042;47.620;12.188;2023-04-24T01:18:26;8.75;;;2.08;;
34828;SDS011;21042;47.620;12.188;2023-04-24T01:20:54;3.13;;;1.92;;
34828;SDS011;21042;47.620;12.188;2023-04-24T01:23:24;3.20;;;2.28;;
34828;SDS011;21042;47.620;12.188;2023-04-24T01:25:52;2.38;;;1.83;;
34828;SDS011;21042;47.620;12.188;2023-04-24T01:28:19;2.50;;;1.90;;
34828;SDS011;21042;47.620;12.188;2023-04-24T01:30:45;1.42;;;1.25;;
34828;SDS011;21042;47.620;12.188;2023-04-24T01:33:12;1.30;;;1.17;;
34828;SDS011;21042;47.620;12.188;2023-04-24T01:35:39;3.38;;;1.02;;
34828;SDS011;21042;47.620;12.188;2023-04-24T01:38:06;4.50;;;1.60;;
34828;SDS011;21042;47.620;12.188;2023-04-24T01:40:34;2.00;;;0.90;;
34828;SDS011;21042;47.620;12.188;2023-04-24T01:43:02;2.33;;;0.75;;
34828;SDS011;21042;47.620;12.188;2023-04-24T01:45:29;1.35;;;1.20;;
34828;SDS011;21042;47.620;12.188;2023-04-24T01:47:56;3.13;;;1.42;;
34828;SDS011;21042;47.620;12.188;2023-04-24T01:52:49;1.80;;;1.20;;
34828;SDS011;21042;47.620;12.188;2023-04-24T01:55:16;2.25;;;1.00;;
34828;SDS011;21042;47.620;12.188;2023-04-24T01:57:44;1.50;;;1.00;;
34828;SDS011;21042;47.620;12.188;2023-04-24T02:00:11;1.40;;;1.10;;
34828;SDS011;21042;47.620;12.188;2023-04-24T02:02:41;5.63;;;1.50;;
34828;SDS011;21042;47.620;12.188;2023-04-24T02:05:12;3.38;;;1.33;;
34828;SDS011;21042;47.620;12.188;2023-04-24T02:07:39;1.50;;;1.10;;
34828;SDS011;21042;47.620;12.188;2023-04-24T02:10:07;2.95;;;1.45;;
34828;SDS011;21042;47.620;12.188;2023-04-24T02:12:34;1.80;;;0.95;;
34828;SDS011;21042;47.620;12.188;2023-04-24T02:15:00;2.67;;;1.05;;
34828;SDS011;21042;47.620;12.188;2023-04-24T02:17:27;1.13;;;1.00;;
34828;SDS011;21042;47.620;12.188;2023-04-24T02:19:56;2.88;;;0.90;;
34828;SDS011;21042;47.620;12.188;2023-04-24T02:22:22;1.58;;;1.15;;
34828;SDS011;21042;47.620;12.188;2023-04-24T02:24:49;0.57;;;0.55;;
34828;SDS011;21042;47.620;12.188;2023-04-24T02:27:16;0.75;;;0.73;;
34828;SDS011;21042;47.620;12.188;2023-04-24T02:29:42;1.95;;;0.90;;
34828;SDS011;21042;47.620;12.188;2023-04-24T02:34:38;1.40;;;0.75;;
34828;SDS011;21042;47.620;12.188;2023-04-24T02:37:05;0.50;;;0.40;;
34828;SDS011;21042;47.620;12.188;2023-04-24T02:39:31;5.57;;;0.70;;
34828;SDS011;21042;47.620;12.188;2023-04-24T02:41:58;5.25;;;0.82;;
34828;SDS011;21042;47.620;12.188;2023-04-24T02:44:25;2.20;;;0.60;;
34828;SDS011;21042;47.620;12.188;2023-04-24T02:46:51;2.05;;;0.80;;
34828;SDS011;21042;47.620;12.188;2023-04-24T02:49:18;3.90;;;0.70;;
34828;SDS011;21042;47.620;12.188;2023-04-24T02:51:45;1.63;;;0.98;;
34828;SDS011;21042;47.620;12.188;2023-04-24T02:54:12;0.80;;;0.75;;
34828;SDS011;21042;47.620;12.188;2023-04-24T02:56:38;1.85;;;0.70;;
34828;SDS011;21042;47.620;12.188;2023-04-24T02:59:07;1.45;;;0.77;;
34828;SDS011;21042;47.620;12.188;2023-04-24T03:01:34;2.15;;;1.00;;
34828;SDS011;21042;47.620;12.188;2023-04-24T03:06:28;3.03;;;1.10;;
34828;SDS011;21042;47.620;12.188;2023-04-24T03:08:57;1.85;;;1.02;;
34828;SDS011;21042;47.620;12.188;2023-04-24T03:11:24;6.65;;;0.88;;
34828;SDS011;21042;47.620;12.188;2023-04-24T03:13:51;1.52;;;1.10;;
34828;SDS011;21042;47.620;12.188;2023-04-24T03:16:18;1.73;;;0.82;;
34828;SDS011;21042;47.620;12.188;2023-04-24T03:18:45;1.15;;;0.80;;
34828;SDS011;21042;47.620;12.188;2023-04-24T03:21:13;3.83;;;0.80;;
34828;SDS011;21042;47.620;12.188;2023-04-24T03:23:44;2.85;;;1.13;;
34828;SDS011;21042;47.620;12.188;2023-04-24T03:26:10;2.15;;;1.27;;
34828;SDS011;21042;47.620;12.188;2023-04-24T03:28:48;2.45;;;0.90;;
34828;SDS011;21042;47.620;12.188;2023-04-24T03:31:15;1.00;;;0.88;;
34828;SDS011;21042;47.620;12.188;2023-04-24T03:33:42;1.10;;;1.00;;
34828;SDS011;21042;47.620;12.188;2023-04-24T03:36:09;1.73;;;1.13;;
34828;SDS011;21042;47.620;12.188;2023-04-24T03:38:39;1.08;;;0.98;;
34828;SDS011;21042;47.620;12.188;2023-04-24T03:41:38;0.98;;;0.85;;
34828;SDS011;21042;47.620;12.188;2023-04-24T03:44:12;3.00;;;0.80;;
34828;SDS011;21042;47.620;12.188;2023-04-24T03:46:39;1.25;;;0.90;;
34828;SDS011;21042;47.620;12.188;2023-04-24T03:49:06;2.55;;;0.80;;
34828;SDS011;21042;47.620;12.188;2023-04-24T03:51:36;0.82;;;0.70;;
34828;SDS011;21042;47.620;12.188;2023-04-24T03:54:19;1.40;;;0.80;;
34828;SDS011;21042;47.620;12.188;2023-04-24T03:56:48;2.58;;;0.70;;
34828;SDS011;21042;47.620;12.188;2023-04-24T03:59:15;0.77;;;0.75;;
34828;SDS011;21042;47.620;12.188;2023-04-24T04:01:46;0.52;;;0.52;;
34828;SDS011;21042;47.620;12.188;2023-04-24T04:04:15;1.00;;;0.50;;
34828;SDS011;21042;47.620;12.188;2023-04-24T04:06:43;1.58;;;0.60;;
34828;SDS011;21042;47.620;12.188;2023-04-24T04:12:06;4.30;;;1.00;;
34828;SDS011;21042;47.620;12.188;2023-04-24T04:14:33;2.88;;;0.32;;
34828;SDS011;21042;47.620;12.188;2023-04-24T04:17:01;0.52;;;0.30;;
34828;SDS011;21042;47.620;12.188;2023-04-24T04:19:27;0.98;;;0.63;;
34828;SDS011;21042;47.620;12.188;2023-04-24T04:21:55;2.30;;;0.88;;
34828;SDS011;21042;47.620;12.188;2023-04-24T04:24:34;2.08;;;1.00;;
34828;SDS011;21042;47.620;12.188;2023-04-24T04:27:04;2.70;;;0.65;;
34828;SDS011;21042;47.620;12.188;2023-04-24T04:29:38;1.55;;;0.55;;
34828;SDS011;21042;47.620;12.188;2023-04-24T04:32:09;1.85;;;0.30;;
34828;SDS011;21042;47.620;12.188;2023-04-24T04:37:06;0.63;;;0.63;;
34828;SDS011;21042;47.620;12.188;2023-04-24T04:39:59;0.30;;;0.30;;
34828;SDS011;21042;47.620;12.188;2023-04-24T04:42:31;2.85;;;1.30;;
34828;SDS011;21042;47.620;12.188;2023-04-24T04:45:00;1.25;;;0.85;;
34828;SDS011;21042;47.620;12.188;2023-04-24T04:47:36;1.67;;;0.73;;
34828;SDS011;21042;47.620;12.188;2023-04-24T04:50:05;1.23;;;0.95;;
34828;SDS011;21042;47.620;12.188;2023-04-24T04:52:32;6.47;;;1.15;;
34828;SDS011;21042;47.620;12.188;2023-04-24T04:55:09;0.88;;;0.60;;
34828;SDS011;21042;47.620;12.188;2023-04-24T04:57:59;3.67;;;1.30;;
34828;SDS011;21042;47.620;12.188;2023-04-24T05:00:27;1.00;;;0.70;;
34828;SDS011;21042;47.620;12.188;2023-04-24T05:02:55;1.85;;;1.00;;
34828;SDS011;21042;47.620;12.188;2023-04-24T05:05:38;1.85;;;1.20;;
34828;SDS011;21042;47.620;12.188;2023-04-24T05:08:10;0.88;;;0.50;;
34828;SDS011;21042;47.620;12.188;2023-04-24T05:10:52;1.65;;;0.60;;
34828;SDS011;21042;47.620;12.188;2023-04-24T05:13:18;2.30;;;0.82;;
34828;SDS011;21042;47.620;12.188;2023-04-24T05:16:02;1.40;;;0.40;;
34828;SDS011;21042;47.620;12.188;2023-04-24T05:18:30;1.70;;;0.80;;
34828;SDS011;21042;47.620;12.188;2023-04-24T05:20:57;1.08;;;0.70;;
34828;SDS011;21042;47.620;12.188;2023-04-24T05:27:04;2.25;;;0.68;;
34828;SDS011;21042;47.620;12.188;2023-04-24T05:29:36;1.38;;;0.85;;
34828;SDS011;21042;47.620;12.188;2023-04-24T05:32:04;1.20;;;0.80;;
34828;SDS011;21042;47.620;12.188;2023-04-24T05:34:31;1.88;;;0.80;;
34828;SDS011;21042;47.620;12.188;2023-04-24T05:36:58;1.45;;;0.65;;
34828;SDS011;21042;47.620;12.188;2023-04-24T05:39:25;0.82;;;0.60;;
34828;SDS011;21042;47.620;12.188;2023-04-24T05:41:53;1.15;;;0.80;;
34828;SDS011;21042;47.620;12.188;2023-04-24T05:44:19;1.20;;;0.82;;
34828;SDS011;21042;47.620;12.188;2023-04-24T05:46:47;0.90;;;0.77;;
34828;SDS011;21042;47.620;12.188;2023-04-24T05:49:14;2.40;;;1.35;;
34828;SDS011;21042;47.620;12.188;2023-04-24T05:51:42;1.40;;;0.82;;
34828;SDS011;21042;47.620;12.188;2023-04-24T05:54:09;2.47;;;1.00;;
34828;SDS011;21042;47.620;12.188;2023-04-24T05:56:38;1.60;;;0.90;;
34828;SDS011;21042;47.620;12.188;2023-04-24T05:59:11;2.13;;;0.90;;
34828;SDS011;21042;47.620;12.188;2023-04-24T06:01:37;1.30;;;1.02;;
34828;SDS011;21042;47.620;12.188;2023-04-24T06:04:10;2.38;;;1.42;;
34828;SDS011;21042;47.620;12.188;2023-04-24T06:06:40;2.00;;;0.85;;
34828;SDS011;21042;47.620;12.188;2023-04-24T06:09:07;1.77;;;0.55;;
34828;SDS011;21042;47.620;12.188;2023-04-24T06:11:34;0.93;;;0.60;;
34828;SDS011;21042;47.620;12.188;2023-04-24T06:14:01;1.35;;;0.68;;
34828;SDS011;21042;47.620;12.188;2023-04-24T06:16:57;1.35;;;0.80;;
34828;SDS011;21042;47.620;12.188;2023-04-24T06:19:33;1.90;;;0.60;;
34828;SDS011;21042;47.620;12.188;2023-04-24T06:22:01;3.58;;;1.15;;
34828;SDS011;21042;47.620;12.188;2023-04-24T06:24:27;2.33;;;0.80;;
34828;SDS011;21042;47.620;12.188;2023-04-24T06:26:55;3.92;;;1.23;;
34828;SDS011;21042;47.620;12.188;2023-04-24T06:29:23;4.25;;;0.95;;
34828;SDS011;21042;47.620;12.188;2023-04-24T06:31:49;0.73;;;0.73;;
34828;SDS011;21042;47.620;12.188;2023-04-24T06:34:16;3.60;;;0.98;;
34828;SDS011;21042;47.620;12.188;2023-04-24T06:36:43;2.80;;;1.20;;
34828;SDS011;21042;47.620;12.188;2023-04-24T06:39:10;3.80;;;0.82;;
34828;SDS011;21042;47.620;12.188;2023-04-24T06:41:37;3.03;;;1.00;;
34828;SDS011;21042;47.620;12.188;2023-04-24T06:44:03;1.10;;;0.88;;
34828;SDS011;21042;47.620;12.188;2023-04-24T06:46:30;0.60;;;0.40;;
34828;SDS011;21042;47.620;12.188;2023-04-24T06:48:57;2.88;;;0.88;;
34828;SDS011;21042;47.620;12.188;2023-04-24T06:51:24;1.67;;;0.80;;
34828;SDS011;21042;47.620;12.188;2023-04-24T06:53:52;1.70;;;0.82;;
34828;SDS011;21042;47.620;12.188;2023-04-24T06:56:19;1.75;;;0.73;;
34828;SDS011;21042;47.620;12.188;2023-04-24T06:58:46;5.80;;;0.90;;
34828;SDS011;21042;47.620;12.188;2023-04-24T07:01:13;1.55;;;0.80;;
34828;SDS011;21042;47.620;12.188;2023-04-24T07:06:09;2.35;;;0.90;;
34828;SDS011;21042;47.620;12.188;2023-04-24T07:08:38;1.20;;;0.73;;
34828;SDS011;21042;47.620;12.188;2023-04-24T07:11:05;2.13;;;1.20;;
34828;SDS011;21042;47.620;12.188;2023-04-24T07:13:32;4.57;;;1.52;;
34828;SDS011;21042;47.620;12.188;2023-04-24T07:16:01;2.97;;;1.67;;
34828;SDS011;21042;47.620;12.188;2023-04-24T07:18:28;3.08;;;1.00;;
34828;SDS011;21042;47.620;12.188;2023-04-24T07:20:55;0.68;;;0.60;;
34828;SDS011;21042;47.620;12.188;2023-04-24T07:23:22;2.25;;;0.70;;
34828;SDS011;21042;47.620;12.188;2023-04-24T07:25:49;2.08;;;0.70;;
34828;SDS011;21042;47.620;12.188;2023-04-24T07:28:16;2.42;;;0.77;;
34828;SDS011;21042;47.620;12.188;2023-04-24T07:30:44;0.93;;;0.68;;
34828;SDS011;21042;47.620;12.188;2023-04-24T07:33:10;1.15;;;0.75;;
34828;SDS011;21042;47.620;12.188;2023-04-24T07:35:39;3.75;;;1.88;;
34828;SDS011;21042;47.620;12.188;2023-04-24T07:38:06;3.67;;;1.38;;
34828;SDS011;21042;47.620;12.188;2023-04-24T07:40:33;1.02;;;0.70;;
34828;SDS011;21042;47.620;12.188;2023-04-24T07:42:59;0.60;;;0.55;;
34828;SDS011;21042;47.620;12.188;2023-04-24T07:45:26;2.00;;;0.73;;
34828;SDS011;21042;47.620;12.188;2023-04-24T07:47:54;0.50;;;0.40;;
34828;SDS011;21042;47.620;12.188;2023-04-24T07:50:21;1.77;;;0.50;;
34828;SDS011;21042;47.620;12.188;2023-04-24T07:55:15;1.70;;;0.73;;
34828;SDS011;21042;47.620;12.188;2023-04-24T07:57:41;0.65;;;0.50;;
34828;SDS011;21042;47.620;12.188;2023-04-24T08:00:08;2.33;;;1.10;;
34828;SDS011;21042;47.620;12.188;2023-04-24T08:02:39;1.67;;;0.52;;
34828;SDS011;21042;47.620;12.188;2023-04-24T08:05:06;0.95;;;0.47;;
34828;SDS011;21042;47.620;12.188;2023-04-24T08:07:34;2.58;;;1.00;;
34828;SDS011;21042;47.620;12.188;2023-04-24T08:10:02;0.65;;;0.50;;
34828;SDS011;21042;47.620;12.188;2023-04-24T08:12:29;3.60;;;0.90;;
34828;SDS011;21042;47.620;12.188;2023-04-24T08:14:55;13.80;;;2.17;;
34828;SDS011;21042;47.620;12.188;2023-04-24T08:17:22;7.00;;;1.80;;
34828;SDS011;21042;47.620;12.188;2023-04-24T08:19:49;0.88;;;0.70;;
34828;SDS011;21042;47.620;12.188;2023-04-24T08:22:17;4.55;;;2.00;;
34828;SDS011;21042;47.620;12.188;2023-04-24T08:24:43;1.50;;;0.90;;
34828;SDS011;21042;47.620;12.188;2023-04-24T08:27:10;1.60;;;0.68;;
34828;SDS011;21042;47.620;12.188;2023-04-24T08:29:37;3.13;;;0.50;;
34828;SDS011;21042;47.620;12.188;2023-04-24T08:32:04;0.50;;;0.50;;
34828;SDS011;21042;47.620;12.188;2023-04-24T08:34:30;1.83;;;0.50;;
34828;SDS011;21042;47.620;12.188;2023-04-24T08:36:57;0.95;;;0.60;;
34828;SDS011;21042;47.620;12.188;2023-04-24T08:39:24;3.45;;;0.70;;
34828;SDS011;21042;47.620;12.188;2023-04-24T08:41:51;1.08;;;0.52;;
34828;SDS011;21042;47.620;12.188;2023-04-24T08:44:19;1.02;;;0.50;;
34828;SDS011;21042;47.620;12.188;2023-04-24T08:46:47;2.17;;;0.63;;
34828;SDS011;21042;47.620;12.188;2023-04-24T08:49:14;1.52;;;0.70;;
34828;SDS011;21042;47.620;12.188;2023-04-24T08:51:44;2.15;;;0.68;;
34828;SDS011;21042;47.620;12.188;2023-04-24T08:54:13;2.95;;;1.25;;
34828;SDS011;21042;47.620;12.188;2023-04-24T08:56:40;2.05;;;1.00;;
34828;SDS011;21042;47.620;12.188;2023-04-24T08:59:10;3.42;;;1.35;;
34828;SDS011;21042;47.620;12.188;2023-04-24T09:01:38;1.35;;;0.60;;
34828;SDS011;21042;47.620;12.188;2023-04-24T09:04:07;1.73;;;0.90;;
34828;SDS011;21042;47.620;12.188;2023-04-24T09:06:39;0.88;;;0.60;;
34828;SDS011;21042;47.620;12.188;2023-04-24T09:09:06;0.63;;;0.40;;
34828;SDS011;21042;47.620;12.188;2023-04-24T09:11:34;4.03;;;0.85;;
34828;SDS011;21042;47.620;12.188;2023-04-24T09:14:01;0.73;;;0.50;;
34828;SDS011;21042;47.620;12.188;2023-04-24T09:16:27;0.82;;;0.50;;
34828;SDS011;21042;47.620;12.188;2023-04-24T09:18:55;1.27;;;0.60;;
34828;SDS011;21042;47.620;12.188;2023-04-24T09:21:22;3.03;;;0.52;;
34828;SDS011;21042;47.620;12.188;2023-04-24T09:23:59;1.25;;;0.73;;
34828;SDS011;21042;47.620;12.188;2023-04-24T09:26:29;1.70;;;0.90;;
34828;SDS011;21042;47.620;12.188;2023-04-24T09:28:59;1.45;;;0.45;;
34828;SDS011;21042;47.620;12.188;2023-04-24T09:31:27;2.65;;;0.65;;
34828;SDS011;21042;47.620;12.188;2023-04-24T09:34:00;3.38;;;1.00;;
34828;SDS011;21042;47.620;12.188;2023-04-24T09:39:05;2.47;;;1.67;;
34828;SDS011;21042;47.620;12.188;2023-04-24T09:41:34;1.73;;;1.63;;
34828;SDS011;21042;47.620;12.188;2023-04-24T09:47:00;4.68;;;2.28;;
34828;SDS011;21042;47.620;12.188;2023-04-24T09:49:28;2.00;;;1.45;;
34828;SDS011;21042;47.620;12.188;2023-04-24T09:52:29;1.40;;;1.30;;
34828;SDS011;21042;47.620;12.188;2023-04-24T09:54:54;3.78;;;1.00;;
34828;SDS011;21042;47.620;12.188;2023-04-24T09:57:24;2.50;;;1.60;;
34828;SDS011;21042;47.620;12.188;2023-04-24T09:59:50;1.65;;;1.50;;
34828;SDS011;21042;47.620;12.188;2023-04-24T10:02:19;6.25;;;1.63;;
34828;SDS011;21042;47.620;12.188;2023-04-24T10:04:56;5.20;;;1.80;;
34828;SDS011;21042;47.620;12.188;2023-04-24T10:07:26;2.90;;;2.17;;
34828;SDS011;21042;47.620;12.188;2023-04-24T10:12:52;8.48;;;2.78;;
34828;SDS011;21042;47.620;12.188;2023-04-24T10:15:19;4.70;;;2.33;;
34828;SDS011;21042;47.620;12.188;2023-04-24T10:17:48;4.05;;;1.90;;
34828;SDS011;21042;47.620;12.188;2023-04-24T10:20:23;2.53;;;1.33;;
34828;SDS011;21042;47.620;12.188;2023-04-24T10:22:52;2.03;;;1.63;;
34828;SDS011;21042;47.620;12.188;2023-04-24T10:25:20;4.07;;;1.25;;
34828;SDS011;21042;47.620;12.188;2023-04-24T10:27:52;1.70;;;1.02;;
34828;SDS011;21042;47.620;12.188;2023-04-24T10:30:19;1.67;;;1.10;;
34828;SDS011;21042;47.620;12.188;2023-04-24T10:32:46;4.25;;;1.50;;
34828;SDS011;21042;47.620;12.188;2023-04-24T10:35:13;4.40;;;1.90;;
34828;SDS011;21042;47.620;12.188;2023-04-24T10:37:43;3.38;;;1.65;;
34828;SDS011;21042;47.620;12.188;2023-04-24T10:40:16;4.15;;;1.88;;
34828;SDS011;21042;47.620;12.188;2023-04-24T10:42:48;4.03;;;1.70;;
34828;SDS011;21042;47.620;12.188;2023-04-24T10:45:18;3.35;;;1.88;;
34828;SDS011;21042;47.620;12.188;2023-04-24T10:47:56;17.25;;;6.45;;
34828;SDS011;21042;47.620;12.188;2023-04-24T10:50:44;4.82;;;2.30;;
34828;SDS011;21042;47.620;12.188;2023-04-24T10:53:20;3.78;;;2.00;;
34828;SDS011;21042;47.620;12.188;2023-04-24T10:56:03;9.05;;;4.28;;
34828;SDS011;21042;47.620;12.188;2023-04-24T10:58:37;3.17;;;1.55;;
34828;SDS011;21042;47.620;12.188;2023-04-24T11:01:06;4.38;;;1.80;;
34828;SDS011;21042;47.620;12.188;2023-04-24T11:03:34;4.03;;;1.73;;
34828;SDS011;21042;47.620;12.188;2023-04-24T11:16:35;2.08;;;1.08;;
34828;SDS011;21042;47.620;12.188;2023-04-24T11:19:08;2.25;;;0.93;;
34828;SDS011;21042;47.620;12.188;2023-04-24T11:21:44;2.58;;;1.10;;
34828;SDS011;21042;47.620;12.188;2023-04-24T11:26:57;2.08;;;0.90;;
34828;SDS011;21042;47.620;12.188;2023-04-24T11:29:38;1.55;;;0.95;;
34828;SDS011;21042;47.620;12.188;2023-04-24T11:35:20;2.30;;;1.20;;
34828;SDS011;21042;47.620;12.188;2023-04-24T11:37:53;1.15;;;0.85;;
34828;SDS011;21042;47.620;12.188;2023-04-24T11:40:37;2.70;;;0.90;;
34828;SDS011;21042;47.620;12.188;2023-04-24T11:45:33;1.75;;;0.73;;
34828;SDS011;21042;47.620;12.188;2023-04-24T11:50:29;1.77;;;0.80;;
34828;SDS011;21042;47.620;12.188;2023-04-24T11:52:56;2.05;;;0.80;;
34828;SDS011;21042;47.620;12.188;2023-04-24T11:55:24;8.93;;;0.93;;
34828;SDS011;21042;47.620;12.188;2023-04-24T11:57:56;2.38;;;0.82;;
34828;SDS011;21042;47.620;12.188;2023-04-24T12:00:28;2.97;;;0.70;;
34828;SDS011;21042;47.620;12.188;2023-04-24T12:03:04;2.55;;;0.70;;
34828;SDS011;21042;47.620;12.188;2023-04-24T12:05:35;5.55;;;0.82;;
34828;SDS011;21042;47.620;12.188;2023-04-24T12:08:03;1.23;;;0.60;;
34828;SDS011;21042;47.620;12.188;2023-04-24T12:10:31;0.63;;;0.52;;
34828;SDS011;21042;47.620;12.188;2023-04-24T12:12:59;2.40;;;0.95;;
34828;SDS011;21042;47.620;12.188;2023-04-24T12:15:26;2.45;;;0.60;;
34828;SDS011;21042;47.620;12.188;2023-04-24T12:17:54;3.28;;;0.73;;
34828;SDS011;21042;47.620;12.188;2023-04-24T12:20:26;1.70;;;0.70;;
34828;SDS011;21042;47.620;12.188;2023-04-24T12:22:56;1.25;;;0.70;;
34828;SDS011;21042;47.620;12.188;2023-04-24T12:25:28;1.35;;;0.85;;
34828;SDS011;21042;47.620;12.188;2023-04-24T12:28:17;2.33;;;0.82;;
34828;SDS011;21042;47.620;12.188;2023-04-24T12:30:43;0.88;;;0.82;;
34828;SDS011;21042;47.620;12.188;2023-04-24T12:33:20;2.15;;;0.85;;
34828;SDS011;21042;47.620;12.188;2023-04-24T12:35:48;1.38;;;0.65;;
34828;SDS011;21042;47.620;12.188;2023-04-24T12:38:21;3.00;;;0.60;;
34828;SDS011;21042;47.620;12.188;2023-04-24T12:41:00;0.40;;;0.40;;
34828;SDS011;21042;47.620;12.188;2023-04-24T12:43:34;2.03;;;0.60;;
34828;SDS011;21042;47.620;12.188;2023-04-24T12:46:02;0.60;;;0.40;;
34828;SDS011;21042;47.620;12.188;2023-04-24T12:50:57;1.13;;;0.50;;
34828;SDS011;21042;47.620;12.188;2023-04-24T12:53:27;0.60;;;0.40;;
34828;SDS011;21042;47.620;12.188;2023-04-24T12:55:58;0.90;;;0.60;;
34828;SDS011;21042;47.620;12.188;2023-04-24T12:58:24;2.42;;;0.90;;
34828;SDS011;21042;47.620;12.188;2023-04-24T13:00:51;1.58;;;0.70;;
34828;SDS011;21042;47.620;12.188;2023-04-24T13:03:18;3.13;;;1.58;;
34828;SDS011;21042;47.620;12.188;2023-04-24T13:05:45;4.32;;;1.10;;
34828;SDS011;21042;47.620;12.188;2023-04-24T13:08:12;1.08;;;0.55;;
34828;SDS011;21042;47.620;12.188;2023-04-24T13:10:39;2.13;;;0.80;;
34828;SDS011;21042;47.620;12.188;2023-04-24T13:13:07;0.57;;;0.50;;
34828;SDS011;21042;47.620;12.188;2023-04-24T13:15:34;0.60;;;0.40;;
34828;SDS011;21042;47.620;12.188;2023-04-24T13:18:01;1.52;;;0.57;;
34828;SDS011;21042;47.620;12.188;2023-04-24T13:20:28;2.75;;;0.70;;
34828;SDS011;21042;47.620;12.188;2023-04-24T13:22:55;0.80;;;0.50;;
34828;SDS011;21042;47.620;12.188;2023-04-24T13:25:21;0.63;;;0.50;;
34828;SDS011;21042;47.620;12.188;2023-04-24T13:27:49;2.38;;;0.98;;
34828;SDS011;21042;47.620;12.188;2023-04-24T13:32:43;3.13;;;0.60;;
34828;SDS011;21042;47.620;12.188;2023-04-24T13:35:10;3.83;;;0.60;;
34828;SDS011;21042;47.620;12.188;2023-04-24T13:37:37;0.30;;;0.30;;
34828;SDS011;21042;47.620;12.188;2023-04-24T13:40:04;1.00;;;0.73;;
34828;SDS011;21042;47.620;12.188;2023-04-24T13:42:32;0.50;;;0.50;;
34828;SDS011;21042;47.620;12.188;2023-04-24T13:44:59;0.80;;;0.60;;
34828;SDS011;21042;47.620;12.188;2023-04-24T13:47:29;0.77;;;0.50;;
34828;SDS011;21042;47.620;12.188;2023-04-24T13:49:55;1.38;;;0.82;;
34828;SDS011;21042;47.620;12.188;2023-04-24T13:52:22;4.63;;;0.50;;
34828;SDS011;21042;47.620;12.188;2023-04-24T13:54:49;1.33;;;0.55;;
34828;SDS011;21042;47.620;12.188;2023-04-24T13:57:15;1.15;;;0.50;;
34828;SDS011;21042;47.620;12.188;2023-04-24T13:59:42;3.13;;;0.60;;
34828;SDS011;21042;47.620;12.188;2023-04-24T14:02:09;0.63;;;0.30;;
34828;SDS011;21042;47.620;12.188;2023-04-24T14:04:36;1.42;;;0.98;;
34828;SDS011;21042;47.620;12.188;2023-04-24T14:07:03;0.77;;;0.40;;
34828;SDS011;21042;47.620;12.188;2023-04-24T14:09:30;3.35;;;1.08;;
34828;SDS011;21042;47.620;12.188;2023-04-24T14:11:57;1.45;;;0.52;;
34828;SDS011;21042;47.620;12.188;2023-04-24T14:14:23;0.50;;;0.50;;
34828;SDS011;21042;47.620;12.188;2023-04-24T14:16:50;0.63;;;0.63;;
34828;SDS011;21042;47.620;12.188;2023-04-24T14:19:17;0.77;;;0.60;;
34828;SDS011;21042;47.620;12.188;2023-04-24T14:21:44;3.15;;;0.70;;
34828;SDS011;21042;47.620;12.188;2023-04-24T14:24:10;3.25;;;0.77;;
34828;SDS011;21042;47.620;12.188;2023-04-24T14:26:37;0.57;;;0.43;;
34828;SDS011;21042;47.620;12.188;2023-04-24T14:29:04;2.28;;;0.60;;
34828;SDS011;21042;47.620;12.188;2023-04-24T14:31:40;2.03;;;0.60;;
34828;SDS011;21042;47.620;12.188;2023-04-24T14:34:07;1.17;;;0.82;;
34828;SDS011;21042;47.620;12.188;2023-04-24T14:36:33;1.55;;;0.70;;
34828;SDS011;21042;47.620;12.188;2023-04-24T14:41:32;1.50;;;0.73;;
34828;SDS011;21042;47.620;12.188;2023-04-24T14:44:02;1.48;;;0.93;;
34828;SDS011;21042;47.620;12.188;2023-04-24T14:48:59;2.92;;;0.60;;
34828;SDS011;21042;47.620;12.188;2023-04-24T14:51:26;6.22;;;0.77;;
34828;SDS011;21042;47.620;12.188;2023-04-24T14:53:53;2.30;;;0.80;;
34828;SDS011;21042;47.620;12.188;2023-04-24T14:56:19;2.17;;;1.00;;
34828;SDS011;21042;47.620;12.188;2023-04-24T14:58:46;3.47;;;0.93;;
34828;SDS011;21042;47.620;12.188;2023-04-24T15:01:13;2.00;;;0.68;;
34828;SDS011;21042;47.620;12.188;2023-04-24T15:03:41;1.48;;;0.80;;
34828;SDS011;21042;47.620;12.188;2023-04-24T15:06:08;1.83;;;0.70;;
34828;SDS011;21042;47.620;12.188;2023-04-24T15:08:35;3.08;;;0.70;;
34828;SDS011;21042;47.620;12.188;2023-04-24T15:11:01;1.77;;;0.82;;
34828;SDS011;21042;47.620;12.188;2023-04-24T15:13:28;4.10;;;0.80;;
34828;SDS011;21042;47.620;12.188;2023-04-24T15:15:55;1.90;;;0.60;;
34828;SDS011;21042;47.620;12.188;2023-04-24T15:18:22;3.60;;;1.00;;
34828;SDS011;21042;47.620;12.188;2023-04-24T15:20:48;2.45;;;0.60;;
34828;SDS011;21042;47.620;12.188;2023-04-24T15:23:15;0.50;;;0.50;;
34828;SDS011;21042;47.620;12.188;2023-04-24T15:25:42;1.13;;;0.73;;
34828;SDS011;21042;47.620;12.188;2023-04-24T15:28:09;3.42;;;0.80;;
34828;SDS011;21042;47.620;12.188;2023-04-24T15:30:36;1.25;;;0.82;;
34828;SDS011;21042;47.620;12.188;2023-04-24T15:33:02;5.15;;;0.95;;
34828;SDS011;21042;47.620;12.188;2023-04-24T15:35:29;0.73;;;0.52;;
34828;SDS011;21042;47.620;12.188;2023-04-24T15:37:56;1.52;;;0.65;;
34828;SDS011;21042;47.620;12.188;2023-04-24T15:40:23;1.70;;;0.70;;
34828;SDS011;21042;47.620;12.188;2023-04-24T15:42:49;1.17;;;0.80;;
34828;SDS011;21042;47.620;12.188;2023-04-24T15:45:16;2.30;;;1.10;;